Terminal Aerodrome Forecast
Issued by NWS

Home | Current Version | Previous Version | Text Only | Print | Product List | Glossary On
Versions: 1 2 3 4 5 6 7 8 9 10 11 12
000
FTUS42 TJSJ 070539
TAFJSJ
TAF
TJSJ 070539Z 0706/0806 11005KT P6SM FEW023 SCT030
     FM071300 08015G20KT P6SM SCT025
     FM072300 08011KT P6SM FEW025 SCT045=

USA.gov is the U.S. government's official web portal to all federal, state and local government web resources and services.